sensor_id;sensor_type;location;lat;lon;timestamp;temperature;humidity
54202;DHT22;40108;53.152;5.844;2022-12-29T00:21:36;9.20;98.00
54202;DHT22;40108;53.152;5.844;2022-12-29T00:31:54;9.20;98.00
54202;DHT22;40108;53.152;5.844;2022-12-29T00:49:24;9.20;97.90
54202;DHT22;40108;53.152;5.844;2022-12-29T01:06:29;9.20;97.70
54202;DHT22;40108;53.152;5.844;2022-12-29T01:34:15;9.30;97.70
54202;DHT22;40108;53.152;5.844;2022-12-29T01:53:12;9.30;98.20
54202;DHT22;40108;53.152;5.844;2022-12-29T02:03:53;9.20;98.40
54202;DHT22;40108;53.152;5.844;2022-12-29T02:58:30;9.00;97.90
54202;DHT22;40108;53.152;5.844;2022-12-29T14:11:51;8.60;91.40
54202;DHT22;40108;53.152;5.844;2022-12-29T14:15:34;8.50;91.30
54202;DHT22;40108;53.152;5.844;2022-12-29T14:30:18;8.20;91.90
54202;DHT22;40108;53.152;5.844;2022-12-29T17:49:35;7.60;95.30
54202;DHT22;40108;53.152;5.844;2022-12-29T17:52:26;7.60;95.30
54202;DHT22;40108;53.152;5.844;2022-12-29T18:06:30;7.40;94.90
54202;DHT22;40108;53.152;5.844;2022-12-29T19:48:19;7.20;92.90
54202;DHT22;40108;53.152;5.844;2022-12-29T19:51:21;7.20;92.60
54202;DHT22;40108;53.152;5.844;2022-12-29T20:04:32;7.20;92.40
54202;DHT22;40108;53.152;5.844;2022-12-29T20:07:03;7.10;92.30
54202;DHT22;40108;53.152;5.844;2022-12-29T20:09:52;7.10;92.30
54202;DHT22;40108;53.152;5.844;2022-12-29T20:12:18;7.00;92.20
54202;DHT22;40108;53.152;5.844;2022-12-29T20:14:49;7.00;92.20
54202;DHT22;40108;53.152;5.844;2022-12-29T20:17:27;7.00;92.20
54202;DHT22;40108;53.152;5.844;2022-12-29T20:19:58;6.90;92.20
54202;DHT22;40108;53.152;5.844;2022-12-29T20:25:29;6.90;92.30
54202;DHT22;40108;53.152;5.844;2022-12-29T20:31:58;6.70;92.30
54202;DHT22;40108;53.152;5.844;2022-12-29T20:34:26;6.70;92.30
54202;DHT22;40108;53.152;5.844;2022-12-29T20:37:41;6.70;92.40
54202;DHT22;40108;53.152;5.844;2022-12-29T20:40:34;6.70;92.40
54202;DHT22;40108;53.152;5.844;2022-12-29T20:43:17;6.60;92.50
54202;DHT22;40108;53.152;5.844;2022-12-29T20:45:43;6.60;92.60
54202;DHT22;40108;53.152;5.844;2022-12-29T20:48:13;6.60;92.50
54202;DHT22;40108;53.152;5.844;2022-12-29T20:50:47;6.60;92.60
54202;DHT22;40108;53.152;5.844;2022-12-29T20:53:18;6.60;92.70
54202;DHT22;40108;53.152;5.844;2022-12-29T20:55:48;6.60;92.70
54202;DHT22;40108;53.152;5.844;2022-12-29T20:58:17;6.60;92.80
54202;DHT22;40108;53.152;5.844;2022-12-29T21:00:46;6.60;92.80
54202;DHT22;40108;53.152;5.844;2022-12-29T21:41:16;6.70;92.50
54202;DHT22;40108;53.152;5.844;2022-12-29T21:43:43;6.70;92.50
54202;DHT22;40108;53.152;5.844;2022-12-29T21:46:33;6.70;92.50
54202;DHT22;40108;53.152;5.844;2022-12-29T21:48:59;6.70;92.40
54202;DHT22;40108;53.152;5.844;2022-12-29T21:51:28;6.70;92.40
54202;DHT22;40108;53.152;5.844;2022-12-29T21:54:12;6.70;92.40
54202;DHT22;40108;53.152;5.844;2022-12-29T21:57:06;6.70;92.30
54202;DHT22;40108;53.152;5.844;2022-12-29T21:59:35;6.60;92.20
54202;DHT22;40108;53.152;5.844;2022-12-29T22:02:24;6.60;92.20
54202;DHT22;40108;53.152;5.844;2022-12-29T22:05:13;6.60;92.10
54202;DHT22;40108;53.152;5.844;2022-12-29T22:08:03;6.60;92.10
54202;DHT22;40108;53.152;5.844;2022-12-29T22:10:50;6.50;92.10
54202;DHT22;40108;53.152;5.844;2022-12-29T22:13:38;6.50;92.10
54202;DHT22;40108;53.152;5.844;2022-12-29T22:19:15;6.40;92.00
54202;DHT22;40108;53.152;5.844;2022-12-29T22:21:43;6.40;92.00
54202;DHT22;40108;53.152;5.844;2022-12-29T22:24:11;6.30;92.00
54202;DHT22;40108;53.152;5.844;2022-12-29T22:26:41;6.30;92.10
54202;DHT22;40108;53.152;5.844;2022-12-29T22:29:07;6.30;92.00
54202;DHT22;40108;53.152;5.844;2022-12-29T22:31:33;6.20;92.10
54202;DHT22;40108;53.152;5.844;2022-12-29T22:34:03;6.20;92.20
54202;DHT22;40108;53.152;5.844;2022-12-29T22:36:30;6.20;92.20
54202;DHT22;40108;53.152;5.844;2022-12-29T22:39:06;6.20;92.30
54202;DHT22;40108;53.152;5.844;2022-12-29T22:41:35;6.20;92.30
54202;DHT22;40108;53.152;5.844;2022-12-29T22:44:01;6.20;92.40
54202;DHT22;40108;53.152;5.844;2022-12-29T22:46:29;6.20;92.40
54202;DHT22;40108;53.152;5.844;2022-12-29T22:48:56;6.20;92.40
54202;DHT22;40108;53.152;5.844;2022-12-29T22:51:22;6.20;92.40
54202;DHT22;40108;53.152;5.844;2022-12-29T22:53:51;6.20;92.30
54202;DHT22;40108;53.152;5.844;2022-12-29T22:56:17;6.10;92.40
54202;DHT22;40108;53.152;5.844;2022-12-29T22:58:45;6.20;92.50
54202;DHT22;40108;53.152;5.844;2022-12-29T23:01:13;6.10;92.50
54202;DHT22;40108;53.152;5.844;2022-12-29T23:03:47;6.10;92.50
54202;DHT22;40108;53.152;5.844;2022-12-29T23:06:16;6.20;92.50
54202;DHT22;40108;53.152;5.844;2022-12-29T23:08:43;6.10;92.50
54202;DHT22;40108;53.152;5.844;2022-12-29T23:11:12;6.10;92.50
54202;DHT22;40108;53.152;5.844;2022-12-29T23:13:39;6.20;92.50
54202;DHT22;40108;53.152;5.844;2022-12-29T23:16:05;6.10;92.40
54202;DHT22;40108;53.152;5.844;2022-12-29T23:18:31;6.10;92.50
54202;DHT22;40108;53.152;5.844;2022-12-29T23:20:57;6.00;92.50
54202;DHT22;40108;53.152;5.844;2022-12-29T23:23:29;6.00;92.60
54202;DHT22;40108;53.152;5.844;2022-12-29T23:26:13;6.00;92.70
54202;DHT22;40108;53.152;5.844;2022-12-29T23:28:39;6.00;92.70
54202;DHT22;40108;53.152;5.844;2022-12-29T23:31:07;6.00;92.80
54202;DHT22;40108;53.152;5.844;2022-12-29T23:33:33;6.10;92.90
54202;DHT22;40108;53.152;5.844;2022-12-29T23:36:02;6.10;93.00
54202;DHT22;40108;53.152;5.844;2022-12-29T23:38:28;6.10;93.00
54202;DHT22;40108;53.152;5.844;2022-12-29T23:40:54;6.20;93.00
54202;DHT22;40108;53.152;5.844;2022-12-29T23:43:20;6.20;93.00
54202;DHT22;40108;53.152;5.844;2022-12-29T23:45:51;6.20;92.90
54202;DHT22;40108;53.152;5.844;2022-12-29T23:48:17;6.20;92.90
54202;DHT22;40108;53.152;5.844;2022-12-29T23:50:43;6.20;92.90
54202;DHT22;40108;53.152;5.844;2022-12-29T23:53:12;6.20;92.90
54202;DHT22;40108;53.152;5.844;2022-12-29T23:55:40;6.20;92.90
54202;DHT22;40108;53.152;5.844;2022-12-29T23:58:07;6.10;92.90
